createdAt,value
2022-08-03T00:00:22.094Z,0.00
2022-08-03T00:01:26.491Z,0.00
2022-08-03T00:02:30.864Z,0.00
2022-08-03T00:03:35.251Z,0.00
2022-08-03T00:04:39.610Z,0.00
2022-08-03T00:06:04.521Z,0.00
2022-08-03T00:06:48.372Z,0.00
2022-08-03T00:07:52.752Z,0.00
2022-08-03T00:08:57.112Z,0.00
2022-08-03T00:10:01.498Z,0.00
2022-08-03T00:11:05.849Z,0.00
2022-08-03T00:12:10.253Z,0.00
2022-08-03T00:13:14.623Z,0.00
2022-08-03T00:14:18.993Z,0.00
2022-08-03T00:15:23.353Z,0.00
2022-08-03T00:16:27.724Z,0.00
2022-08-03T00:17:52.795Z,0.00
2022-08-03T00:18:36.493Z,0.00
2022-08-03T00:19:40.863Z,0.00
2022-08-03T00:20:45.234Z,0.00
2022-08-03T00:21:49.649Z,0.00
2022-08-03T00:22:54.013Z,0.00
2022-08-03T00:23:58.376Z,0.00
2022-08-03T00:25:02.755Z,0.00
2022-08-03T00:26:07.131Z,0.00
2022-08-03T00:27:11.518Z,0.00
2022-08-03T00:28:15.875Z,0.00
2022-08-03T00:29:20.246Z,0.00
2022-08-03T00:30:26.826Z,0.00
2022-08-03T00:31:52.305Z,0.00
2022-08-03T00:32:33.367Z,0.00
2022-08-03T00:33:58.752Z,0.00
2022-08-03T00:34:57.703Z,0.00
2022-08-03T00:35:50.177Z,0.00
2022-08-03T00:36:50.892Z,0.00
2022-08-03T00:37:55.272Z,0.00
2022-08-03T00:38:59.640Z,0.00
2022-08-03T00:40:04.016Z,0.00
2022-08-03T00:41:08.378Z,0.00
2022-08-03T00:42:12.874Z,0.00
2022-08-03T00:43:17.157Z,0.00
2022-08-03T00:44:21.527Z,0.00
2022-08-03T00:45:25.900Z,0.00
2022-08-03T00:46:30.267Z,0.00
2022-08-03T00:47:34.678Z,0.00
2022-08-03T00:48:39.048Z,0.00
2022-08-03T00:49:43.420Z,0.00
2022-08-03T00:50:47.809Z,0.00
2022-08-03T00:51:52.180Z,0.00
2022-08-03T00:52:56.570Z,0.00
2022-08-03T00:54:00.940Z,0.00
2022-08-03T00:55:05.310Z,0.00
2022-08-03T00:56:09.690Z,0.00
2022-08-03T00:57:14.060Z,0.00
2022-08-03T00:58:18.440Z,0.00
2022-08-03T00:59:22.815Z,0.00
2022-08-03T01:00:27.204Z,0.00
2022-08-03T01:01:32.521Z,0.00
2022-08-03T01:02:35.982Z,0.00
2022-08-03T01:03:40.342Z,0.00
2022-08-03T01:04:44.740Z,0.00
2022-08-03T01:05:49.092Z,0.00
2022-08-03T01:06:53.469Z,0.00
2022-08-03T01:07:57.870Z,0.00
2022-08-03T01:09:02.230Z,0.00
2022-08-03T01:10:06.595Z,0.00
2022-08-03T01:11:10.977Z,0.00
2022-08-03T01:12:15.509Z,0.00
2022-08-03T01:14:01.102Z,0.00
2022-08-03T01:14:24.113Z,0.00
2022-08-03T01:15:28.484Z,0.00
2022-08-03T01:16:36.704Z,0.00
2022-08-03T01:17:37.221Z,0.00
2022-08-03T01:18:41.614Z,0.00
2022-08-03T01:19:45.993Z,0.00
2022-08-03T01:20:50.382Z,0.00
2022-08-03T01:21:54.755Z,0.00
2022-08-03T01:22:59.155Z,0.00
2022-08-03T01:24:03.522Z,0.00
2022-08-03T01:25:07.893Z,0.00
2022-08-03T01:26:12.255Z,0.00
2022-08-03T01:27:16.637Z,0.00
2022-08-03T01:28:21.027Z,0.00
2022-08-03T01:29:25.396Z,0.00
2022-08-03T01:30:29.765Z,0.00
2022-08-03T01:31:34.135Z,0.00
2022-08-03T01:32:53.580Z,0.00
2022-08-03T01:33:42.905Z,0.00
2022-08-03T01:34:47.284Z,0.00
2022-08-03T01:35:51.661Z,0.00
2022-08-03T01:36:56.036Z,0.00
2022-08-03T01:38:00.406Z,0.00
2022-08-03T01:39:04.796Z,0.00
2022-08-03T01:40:09.170Z,0.00
2022-08-03T01:41:13.567Z,0.00
2022-08-03T01:42:18.242Z,0.00
2022-08-03T01:44:28.126Z,0.00
2022-08-03T01:44:30.795Z,0.00
2022-08-03T01:45:34.138Z,0.00
2022-08-03T01:46:35.484Z,0.00
2022-08-03T01:47:39.858Z,0.00
2022-08-03T01:48:44.248Z,0.00
2022-08-03T01:49:49.581Z,0.00
2022-08-03T01:50:53.880Z,0.00
2022-08-03T01:52:04.462Z,0.00
2022-08-03T01:53:02.700Z,0.00
2022-08-03T01:54:07.080Z,0.00
2022-08-03T01:55:11.456Z,0.00
2022-08-03T01:56:15.837Z,0.00
2022-08-03T01:57:20.207Z,0.00
2022-08-03T01:58:24.608Z,0.00
2022-08-03T01:59:28.979Z,0.00
2022-08-03T02:00:33.350Z,0.00
2022-08-03T02:02:28.997Z,0.00
2022-08-03T02:02:42.787Z,0.00
2022-08-03T02:04:00.226Z,0.00
2022-08-03T02:04:50.871Z,0.00
2022-08-03T02:06:17.840Z,0.00
2022-08-03T02:07:02.866Z,0.00
2022-08-03T02:08:04.009Z,0.00
2022-08-03T02:09:08.390Z,0.00
2022-08-03T02:10:12.760Z,0.00
2022-08-03T02:11:17.142Z,0.00
2022-08-03T02:12:21.521Z,0.00
2022-08-03T02:13:25.919Z,0.00
2022-08-03T02:14:30.283Z,0.00
2022-08-03T02:15:34.660Z,0.00
2022-08-03T02:16:39.021Z,0.00
2022-08-03T02:17:43.405Z,0.00
2022-08-03T02:18:47.789Z,0.00
2022-08-03T02:19:52.181Z,0.00
2022-08-03T02:20:56.552Z,0.00
2022-08-03T02:22:01.911Z,0.00
2022-08-03T02:23:05.303Z,0.00
2022-08-03T02:24:09.700Z,0.00
2022-08-03T02:25:14.076Z,0.00
2022-08-03T02:26:18.453Z,0.00
2022-08-03T02:27:22.816Z,0.00
2022-08-03T02:28:27.213Z,0.00
2022-08-03T02:29:39.782Z,0.00
2022-08-03T02:30:35.963Z,0.00
2022-08-03T02:31:40.353Z,0.00
2022-08-03T02:32:44.723Z,0.00
2022-08-03T02:33:49.112Z,0.00
2022-08-03T02:34:53.494Z,0.00
2022-08-03T02:35:57.886Z,0.00
2022-08-03T02:37:02.263Z,0.00
2022-08-03T02:38:06.634Z,0.00
2022-08-03T02:39:11.035Z,0.00
2022-08-03T02:40:15.418Z,0.00
2022-08-03T02:41:19.795Z,0.00
2022-08-03T02:42:24.174Z,0.00
2022-08-03T02:43:28.554Z,0.00
2022-08-03T02:44:32.973Z,0.00
2022-08-03T02:45:37.346Z,0.00
2022-08-03T02:46:41.725Z,0.00
2022-08-03T02:47:53.477Z,0.00
2022-08-03T02:48:50.514Z,0.00
2022-08-03T02:49:54.972Z,0.00
2022-08-03T02:50:59.648Z,0.00
2022-08-03T02:52:03.648Z,0.00
2022-08-03T02:53:08.025Z,0.00
2022-08-03T02:54:12.436Z,0.00
2022-08-03T02:55:16.807Z,0.00
2022-08-03T02:56:21.178Z,0.00
2022-08-03T02:57:25.548Z,0.00
2022-08-03T02:58:29.927Z,0.00
2022-08-03T02:59:34.327Z,0.00
2022-08-03T03:00:38.743Z,0.00
2022-08-03T03:01:43.088Z,0.00
2022-08-03T03:02:47.488Z,0.00
2022-08-03T03:03:51.881Z,0.00
2022-08-03T03:05:52.906Z,0.00
2022-08-03T03:06:01.022Z,0.00
2022-08-03T03:07:05.408Z,0.00
2022-08-03T03:08:18.535Z,0.00
2022-08-03T03:09:14.173Z,0.00
2022-08-03T03:10:18.540Z,0.00
2022-08-03T03:11:22.921Z,0.00
2022-08-03T03:12:27.292Z,0.00
2022-08-03T03:13:31.677Z,0.00
2022-08-03T03:14:36.070Z,0.00
2022-08-03T03:15:40.441Z,0.00
2022-08-03T03:16:44.822Z,0.00
2022-08-03T03:17:49.200Z,0.00
2022-08-03T03:18:53.571Z,0.00
2022-08-03T03:19:57.973Z,0.00
2022-08-03T03:21:02.369Z,0.00
2022-08-03T03:22:06.759Z,0.00
2022-08-03T03:23:11.111Z,0.00
2022-08-03T03:24:15.522Z,0.00
2022-08-03T03:25:19.941Z,0.00
2022-08-03T03:26:24.284Z,0.00
2022-08-03T03:27:28.664Z,0.00
2022-08-03T03:28:33.041Z,0.00
2022-08-03T03:29:39.559Z,0.00
2022-08-03T03:30:41.813Z,0.00
2022-08-03T03:31:46.190Z,0.00
2022-08-03T03:32:52.500Z,0.00
2022-08-03T03:33:54.952Z,0.00
2022-08-03T03:34:59.354Z,0.00
2022-08-03T03:36:03.724Z,0.00
2022-08-03T03:37:08.103Z,0.00
2022-08-03T03:38:12.477Z,0.00
2022-08-03T03:39:16.864Z,0.00
2022-08-03T03:40:21.261Z,0.00
2022-08-03T03:41:25.643Z,0.00
2022-08-03T03:42:30.015Z,0.00
2022-08-03T03:43:34.414Z,0.00
2022-08-03T03:44:38.805Z,0.00
2022-08-03T03:45:43.184Z,0.00
2022-08-03T03:46:47.563Z,5.62
2022-08-03T03:47:51.947Z,5.62
2022-08-03T03:48:56.351Z,5.62
2022-08-03T03:50:00.725Z,5.62
2022-08-03T03:51:05.097Z,5.62
2022-08-03T03:52:09.546Z,5.62
2022-08-03T03:53:13.860Z,5.62
2022-08-03T03:54:18.235Z,5.62
2022-08-03T03:55:22.657Z,11.25
2022-08-03T03:56:27.046Z,11.25
2022-08-03T03:57:31.427Z,11.25
2022-08-03T03:58:35.806Z,11.25
2022-08-03T03:59:40.193Z,11.25
2022-08-03T04:00:44.659Z,16.88
2022-08-03T04:01:48.974Z,16.88
2022-08-03T04:02:53.359Z,16.88
2022-08-03T04:03:57.727Z,16.88
2022-08-03T04:05:02.127Z,22.50
2022-08-03T04:06:06.499Z,22.50
2022-08-03T04:07:10.886Z,22.50
2022-08-03T04:08:15.275Z,22.50
2022-08-03T04:09:19.647Z,28.12
2022-08-03T04:10:24.057Z,28.12
2022-08-03T04:11:30.358Z,28.12
2022-08-03T04:12:32.807Z,28.12
2022-08-03T04:13:37.208Z,33.75
2022-08-03T04:14:41.588Z,33.75
2022-08-03T04:15:46.001Z,33.75
2022-08-03T04:16:50.376Z,39.38
2022-08-03T04:17:54.757Z,39.38
2022-08-03T04:18:59.405Z,39.38
2022-08-03T04:20:03.534Z,39.38
2022-08-03T04:21:07.906Z,45.00
2022-08-03T04:22:12.307Z,45.00
2022-08-03T04:23:16.681Z,45.00
2022-08-03T04:24:21.067Z,50.62
2022-08-03T04:25:25.460Z,50.62
2022-08-03T04:26:29.841Z,50.62
2022-08-03T04:27:34.224Z,50.62
2022-08-03T04:28:38.600Z,56.25
2022-08-03T04:29:46.399Z,56.25
2022-08-03T04:30:47.381Z,56.25
2022-08-03T04:31:51.753Z,56.25
2022-08-03T04:32:56.124Z,61.88
2022-08-03T04:34:00.503Z,61.88
2022-08-03T04:35:04.896Z,61.88
2022-08-03T04:36:09.283Z,61.88
2022-08-03T04:37:13.662Z,67.50
2022-08-03T04:38:18.042Z,67.50
2022-08-03T04:39:22.433Z,73.12
2022-08-03T04:40:29.780Z,73.12
2022-08-03T04:41:31.230Z,73.12
2022-08-03T04:42:35.612Z,73.12
2022-08-03T04:43:39.992Z,78.75
2022-08-03T05:00:02.000Z,106.88
2022-08-03T05:01:00.942Z,106.88
2022-08-03T05:02:05.365Z,106.88
2022-08-03T05:03:19.447Z,106.88
2022-08-03T05:04:14.129Z,106.88
2022-08-03T05:05:18.511Z,112.50
2022-08-03T05:06:25.019Z,112.50
2022-08-03T05:07:35.862Z,112.50
2022-08-03T05:08:31.705Z,112.50
2022-08-03T05:09:50.437Z,118.12
2022-08-03T05:10:40.461Z,118.12
2022-08-03T05:11:44.861Z,118.12
2022-08-03T05:12:49.233Z,118.12
2022-08-03T05:13:53.614Z,118.12
2022-08-03T05:14:57.982Z,118.12
2022-08-03T05:16:02.381Z,118.12
2022-08-03T05:17:06.760Z,118.12
2022-08-03T05:18:14.220Z,118.12
2022-08-03T05:19:15.520Z,118.12
2022-08-03T05:20:19.894Z,118.12
2022-08-03T05:21:24.298Z,118.12
2022-08-03T05:22:28.671Z,118.12
2022-08-03T05:23:33.054Z,118.12
2022-08-03T05:24:37.424Z,123.75
2022-08-03T05:25:49.748Z,123.75
2022-08-03T05:26:46.202Z,123.75
2022-08-03T05:27:50.573Z,118.12
2022-08-03T05:28:54.935Z,118.12
2022-08-03T05:30:31.663Z,129.38
2022-08-03T05:31:03.714Z,135.00
2022-08-03T05:32:08.478Z,140.62
2022-08-03T05:33:12.445Z,140.62
2022-08-03T05:34:16.834Z,140.62
2022-08-03T05:35:57.702Z,140.62
2022-08-03T05:36:25.666Z,129.38
2022-08-03T05:37:30.036Z,146.25
2022-08-03T05:38:35.525Z,146.25
2022-08-03T05:39:38.817Z,146.25
2022-08-03T05:40:56.685Z,146.25
2022-08-03T05:41:47.593Z,146.25
2022-08-03T05:42:51.976Z,146.25
2022-08-03T05:43:56.355Z,146.25
2022-08-03T05:45:00.737Z,146.25
2022-08-03T05:46:13.009Z,146.25
2022-08-03T05:47:09.507Z,146.25
2022-08-03T05:48:13.887Z,140.62
2022-08-03T05:49:18.351Z,146.25
2022-08-03T05:50:22.647Z,151.88
2022-08-03T05:51:27.058Z,157.50
2022-08-03T05:52:31.442Z,157.50
2022-08-03T05:53:35.830Z,157.50
2022-08-03T05:54:55.426Z,163.12
2022-08-03T05:55:44.579Z,163.12
2022-08-03T05:56:48.978Z,163.12
2022-08-03T05:57:55.275Z,163.12
2022-08-03T05:58:57.709Z,163.12
2022-08-03T06:00:02.101Z,163.12
2022-08-03T06:01:06.565Z,163.12
2022-08-03T06:02:10.866Z,163.12
2022-08-03T06:03:15.229Z,168.75
2022-08-03T06:04:19.601Z,168.75
2022-08-03T06:05:23.970Z,168.75
2022-08-03T06:06:32.192Z,168.75
2022-08-03T06:07:32.740Z,163.12
2022-08-03T06:08:37.110Z,168.75
2022-08-03T06:10:34.268Z,168.75
2022-08-03T06:10:45.852Z,168.75
2022-08-03T06:11:50.242Z,168.75
2022-08-03T06:12:54.627Z,168.75
2022-08-03T06:13:58.991Z,168.75
2022-08-03T06:15:03.365Z,168.75
2022-08-03T06:16:07.733Z,168.75
2022-08-03T06:17:12.134Z,163.12
2022-08-03T06:18:16.503Z,168.75
2022-08-03T06:19:20.934Z,174.38
2022-08-03T06:20:27.310Z,174.38
2022-08-03T06:21:29.683Z,174.38
2022-08-03T06:22:34.072Z,174.38
2022-08-03T06:23:53.850Z,180.00
2022-08-03T06:24:53.521Z,180.00
2022-08-03T06:25:47.207Z,168.75
2022-08-03T06:26:51.602Z,168.75
2022-08-03T06:27:55.984Z,185.62
2022-08-03T06:29:00.365Z,185.62
2022-08-03T06:30:04.744Z,185.62
2022-08-03T06:31:09.106Z,185.62
2022-08-03T06:32:13.515Z,185.62
2022-08-03T06:33:17.883Z,185.62
2022-08-03T06:34:34.350Z,185.62
2022-08-03T06:35:26.625Z,174.38
2022-08-03T06:36:31.016Z,180.00
2022-08-03T06:37:35.478Z,185.62
2022-08-03T06:38:39.847Z,185.62
2022-08-03T06:39:44.207Z,185.62
2022-08-03T06:40:48.807Z,185.62
2022-08-03T06:41:52.976Z,185.62
2022-08-03T06:42:57.368Z,191.25
2022-08-03T06:44:03.708Z,185.62
2022-08-03T06:45:06.145Z,191.25
2022-08-03T06:46:10.509Z,191.25
2022-08-03T06:47:14.927Z,191.25
2022-08-03T06:48:19.298Z,191.25
2022-08-03T06:49:23.715Z,191.25
2022-08-03T06:50:28.144Z,191.25
2022-08-03T06:52:03.766Z,191.25
2022-08-03T06:52:38.083Z,180.00
2022-08-03T06:53:41.209Z,185.62
2022-08-03T06:54:45.579Z,185.62
2022-08-03T06:55:54.190Z,180.00
2022-08-03T06:56:54.344Z,180.00
2022-08-03T06:58:00.066Z,191.25
2022-08-03T06:59:03.110Z,196.88
2022-08-03T07:00:12.250Z,191.25
2022-08-03T07:01:11.916Z,191.25
2022-08-03T07:02:19.303Z,202.50
2022-08-03T07:03:20.802Z,208.12
2022-08-03T07:04:25.170Z,208.12
2022-08-03T07:05:29.541Z,208.12
2022-08-03T07:06:33.921Z,208.12
2022-08-03T07:07:38.311Z,208.12
2022-08-03T07:08:42.682Z,213.75
2022-08-03T07:09:56.616Z,213.75
2022-08-03T07:10:51.441Z,213.75
2022-08-03T07:11:55.823Z,213.75
2022-08-03T07:13:00.216Z,213.75
2022-08-03T07:14:04.596Z,213.75
2022-08-03T07:15:08.962Z,213.75
2022-08-03T07:16:13.334Z,213.75
2022-08-03T07:17:17.724Z,208.12
2022-08-03T07:18:29.095Z,208.12
2022-08-03T07:19:26.464Z,208.12
2022-08-03T07:20:32.644Z,208.12
2022-08-03T07:21:35.194Z,202.50
2022-08-03T07:22:39.597Z,208.12
2022-08-03T07:23:43.964Z,213.75
2022-08-03T07:24:48.491Z,213.75
2022-08-03T07:25:52.761Z,219.38
2022-08-03T07:26:57.134Z,219.38
2022-08-03T07:28:01.518Z,219.38
2022-08-03T07:29:14.748Z,219.38
2022-08-03T07:30:10.258Z,219.38
2022-08-03T07:31:14.616Z,219.38
2022-08-03T07:32:19.331Z,219.38
2022-08-03T07:33:23.385Z,219.38
2022-08-03T07:34:27.763Z,202.50
2022-08-03T07:35:32.126Z,213.75
2022-08-03T07:36:36.498Z,213.75
2022-08-03T07:37:40.912Z,219.38
2022-08-03T07:38:45.276Z,219.38
2022-08-03T07:39:49.646Z,213.75
2022-08-03T07:40:54.022Z,208.12
2022-08-03T07:41:58.388Z,208.12
2022-08-03T07:43:02.797Z,208.12
2022-08-03T07:44:07.175Z,208.12
2022-08-03T07:45:16.710Z,219.38
2022-08-03T07:46:15.926Z,219.38
2022-08-03T07:47:22.794Z,225.00
2022-08-03T07:48:24.697Z,225.00
2022-08-03T07:49:29.120Z,225.00
2022-08-03T07:50:33.449Z,219.38
2022-08-03T07:51:37.819Z,213.75
2022-08-03T07:52:42.218Z,213.75
2022-08-03T07:53:47.875Z,208.12
2022-08-03T07:54:50.966Z,208.12
2022-08-03T07:55:55.337Z,213.75
2022-08-03T07:56:59.708Z,219.38
2022-08-03T07:58:04.105Z,219.38
2022-08-03T07:59:08.478Z,230.62
2022-08-03T08:00:12.857Z,241.88
2022-08-03T08:01:17.274Z,241.88
2022-08-03T08:02:21.590Z,236.25
2022-08-03T08:03:25.988Z,241.88
2022-08-03T08:04:30.372Z,247.50
2022-08-03T08:05:34.740Z,241.88
2022-08-03T08:06:39.110Z,236.25
2022-08-03T08:07:43.520Z,230.62
2022-08-03T08:08:47.894Z,236.25
2022-08-03T08:09:52.263Z,219.38
2022-08-03T08:10:58.545Z,219.38
2022-08-03T08:12:01.008Z,236.25
2022-08-03T08:13:05.402Z,230.62
2022-08-03T08:14:09.771Z,247.50
2022-08-03T08:15:14.152Z,258.75
2022-08-03T08:16:18.531Z,258.75
2022-08-03T08:17:22.908Z,247.50
2022-08-03T08:18:27.301Z,241.88
2022-08-03T08:19:31.670Z,241.88
2022-08-03T08:20:38.019Z,236.25
2022-08-03T08:21:53.829Z,241.88
2022-08-03T08:22:44.933Z,241.88
2022-08-03T08:23:56.903Z,270.00
2022-08-03T08:24:53.674Z,258.75
2022-08-03T08:25:58.035Z,258.75
2022-08-03T08:27:02.405Z,230.62
2022-08-03T08:28:30.619Z,264.38
2022-08-03T08:29:11.183Z,247.50
2022-08-03T08:30:19.135Z,258.75
2022-08-03T08:31:19.923Z,258.75
2022-08-03T08:32:24.295Z,241.88
2022-08-03T08:33:42.208Z,258.75
2022-08-03T08:34:33.055Z,253.12
2022-08-03T08:35:37.423Z,247.50
2022-08-03T08:36:41.789Z,225.00
2022-08-03T08:37:51.044Z,264.38
2022-08-03T08:38:50.537Z,213.75
2022-08-03T08:39:54.905Z,264.38
2022-08-03T08:40:59.265Z,270.00
2022-08-03T08:42:03.638Z,270.00
2022-08-03T08:43:08.033Z,264.38
2022-08-03T08:44:12.417Z,264.38
2022-08-03T08:45:16.784Z,264.38
2022-08-03T08:46:23.104Z,264.38
2022-08-03T08:47:26.079Z,264.38
2022-08-03T08:48:29.906Z,264.38
2022-08-03T08:49:34.310Z,264.38
2022-08-03T08:50:38.648Z,270.00
2022-08-03T08:51:54.929Z,270.00
2022-08-03T08:52:47.378Z,258.75
2022-08-03T08:53:51.766Z,241.88
2022-08-03T08:54:56.139Z,230.62
2022-08-03T08:56:01.062Z,236.25
2022-08-03T08:57:16.412Z,258.75
2022-08-03T08:58:09.265Z,241.88
2022-08-03T08:59:13.628Z,236.25
2022-08-03T09:00:18.010Z,230.62
2022-08-03T09:01:22.446Z,241.88
2022-08-03T09:02:26.738Z,270.00
2022-08-03T09:03:31.182Z,275.62
2022-08-03T09:04:35.514Z,275.62
2022-08-03T09:05:55.457Z,275.62
2022-08-03T09:06:58.573Z,281.25
2022-08-03T09:07:48.611Z,281.25
2022-08-03T09:08:53.001Z,286.88
2022-08-03T09:10:11.255Z,286.88
2022-08-03T09:11:01.748Z,286.88
2022-08-03T09:12:35.354Z,292.50
2022-08-03T09:13:10.477Z,292.50
2022-08-03T09:14:35.331Z,292.50
2022-08-03T09:15:19.223Z,292.50
2022-08-03T09:16:23.597Z,292.50
2022-08-03T09:17:27.970Z,292.50
2022-08-03T09:18:33.182Z,292.50
2022-08-03T09:19:36.730Z,292.50
2022-08-03T09:20:41.104Z,286.88
2022-08-03T09:21:45.459Z,281.25
2022-08-03T09:22:49.821Z,275.62
2022-08-03T09:24:02.441Z,275.62
2022-08-03T09:25:22.656Z,292.50
2022-08-03T09:26:02.975Z,292.50
2022-08-03T09:27:07.302Z,292.50
2022-08-03T09:28:11.685Z,298.12
2022-08-03T09:29:16.066Z,298.12
2022-08-03T09:30:34.162Z,292.50
2022-08-03T09:31:24.804Z,298.12
2022-08-03T09:32:29.174Z,303.75
2022-08-03T09:33:34.849Z,303.75
2022-08-03T09:34:37.955Z,303.75
2022-08-03T09:35:58.014Z,309.38
2022-08-03T09:36:46.974Z,315.00
2022-08-03T09:38:12.629Z,315.00
2022-08-03T09:38:55.462Z,315.00
2022-08-03T09:39:59.830Z,309.38
2022-08-03T09:41:04.195Z,315.00
2022-08-03T09:42:08.564Z,315.00
2022-08-03T09:43:12.942Z,309.38
2022-08-03T09:44:24.903Z,315.00
2022-08-03T09:45:21.696Z,326.25
2022-08-03T09:46:26.064Z,326.25
2022-08-03T09:47:30.426Z,326.25
2022-08-03T09:48:34.952Z,326.25
2022-08-03T09:49:41.070Z,331.88
2022-08-03T09:50:58.631Z,320.62
2022-08-03T09:52:31.804Z,326.25
2022-08-03T09:52:52.998Z,337.50
2022-08-03T09:53:59.121Z,331.88
2022-08-03T09:55:01.058Z,337.50
2022-08-03T09:56:35.838Z,343.12
2022-08-03T09:57:09.786Z,337.50
2022-08-03T09:58:14.146Z,331.88
2022-08-03T09:59:18.539Z,337.50
2022-08-03T10:00:22.906Z,343.12
2022-08-03T10:01:27.292Z,337.50
2022-08-03T10:02:31.616Z,337.50
2022-08-03T10:03:35.981Z,331.88
2022-08-03T10:04:40.376Z,320.62
2022-08-03T10:05:44.751Z,331.88
2022-08-03T10:06:49.128Z,337.50
2022-08-03T10:07:53.498Z,337.50
2022-08-03T10:08:57.888Z,337.50
2022-08-03T10:10:31.346Z,337.50
2022-08-03T10:11:06.621Z,337.50
2022-08-03T10:12:10.999Z,326.25
2022-08-03T10:13:15.370Z,337.50
2022-08-03T10:14:19.968Z,331.88
2022-08-03T10:16:22.592Z,315.00
2022-08-03T10:16:28.489Z,309.38
2022-08-03T10:17:35.197Z,320.62
2022-08-03T10:18:37.231Z,320.62
2022-08-03T10:19:41.622Z,343.12
2022-08-03T10:20:45.990Z,331.88
2022-08-03T10:21:50.361Z,309.38
2022-08-03T10:22:54.729Z,320.62
2022-08-03T10:23:59.081Z,315.00
2022-08-03T10:25:03.487Z,326.25
2022-08-03T10:26:07.861Z,331.88
2022-08-03T10:27:12.213Z,331.88
2022-08-03T10:28:16.603Z,343.12
2022-08-03T10:29:21.003Z,348.75
2022-08-03T10:30:26.123Z,348.75
2022-08-03T10:31:29.741Z,360.00
2022-08-03T10:32:34.103Z,360.00
2022-08-03T10:33:50.133Z,360.00
2022-08-03T10:34:44.610Z,365.62
2022-08-03T10:35:47.243Z,371.25
2022-08-03T10:36:51.613Z,360.00
2022-08-03T10:37:59.031Z,371.25
2022-08-03T10:39:00.361Z,382.50
2022-08-03T10:40:04.744Z,376.88
2022-08-03T10:41:09.124Z,320.62
2022-08-03T10:42:14.664Z,371.25
2022-08-03T10:43:17.875Z,365.62
2022-08-03T10:44:22.296Z,365.62
2022-08-03T10:45:26.675Z,393.75
2022-08-03T10:46:31.035Z,376.88
2022-08-03T10:47:35.407Z,343.12
2022-08-03T10:48:39.774Z,331.88
2022-08-03T10:49:44.225Z,331.88
2022-08-03T10:50:48.555Z,343.12
2022-08-03T10:51:54.296Z,348.75
2022-08-03T10:52:57.284Z,365.62
2022-08-03T10:54:02.112Z,348.75
2022-08-03T10:55:07.786Z,371.25
2022-08-03T10:56:10.415Z,348.75
2022-08-03T10:57:14.876Z,309.38
2022-08-03T10:58:30.265Z,371.25
2022-08-03T10:59:28.024Z,354.38
2022-08-03T11:00:27.992Z,343.12
2022-08-03T11:01:58.297Z,348.75
2022-08-03T11:02:36.637Z,371.25
2022-08-03T11:03:41.013Z,371.25
2022-08-03T11:04:45.411Z,326.25
2022-08-03T11:05:49.762Z,360.00
2022-08-03T11:06:54.127Z,326.25
2022-08-03T11:07:58.488Z,331.88
2022-08-03T11:09:02.858Z,320.62
2022-08-03T11:10:10.494Z,320.62
2022-08-03T11:11:11.631Z,303.75
2022-08-03T11:12:15.988Z,264.38
2022-08-03T11:13:20.360Z,320.62
2022-08-03T11:14:24.720Z,320.62
2022-08-03T11:15:29.107Z,309.38
2022-08-03T11:16:33.474Z,253.12
2022-08-03T11:17:46.942Z,281.25
2022-08-03T11:18:42.220Z,343.12
2022-08-03T11:19:56.648Z,343.12
2022-08-03T11:20:50.970Z,343.12
2022-08-03T11:21:55.343Z,343.12
2022-08-03T11:22:59.701Z,326.25
2022-08-03T11:24:06.610Z,292.50
2022-08-03T11:25:08.459Z,270.00
2022-08-03T11:26:12.872Z,326.25
2022-08-03T11:27:17.472Z,337.50
2022-08-03T11:28:21.605Z,331.88
2022-08-03T11:29:25.971Z,303.75
2022-08-03T11:30:30.360Z,281.25
2022-08-03T11:31:51.503Z,315.00
2022-08-03T11:32:39.105Z,315.00
2022-08-03T11:33:43.460Z,371.25
2022-08-03T11:34:47.824Z,382.50
2022-08-03T11:35:52.202Z,388.12
2022-08-03T11:36:56.564Z,388.12
2022-08-03T11:38:02.438Z,388.12
2022-08-03T11:39:05.302Z,393.75
2022-08-03T11:40:09.694Z,393.75
2022-08-03T11:41:14.065Z,388.12
2022-08-03T11:42:18.424Z,388.12
2022-08-03T11:43:22.794Z,388.12
2022-08-03T11:44:27.164Z,388.12
2022-08-03T11:45:31.563Z,388.12
2022-08-03T11:46:35.924Z,388.12
2022-08-03T11:47:50.451Z,388.12
2022-08-03T11:48:44.670Z,388.12
2022-08-03T11:49:49.044Z,393.75
2022-08-03T11:50:53.436Z,376.88
2022-08-03T11:51:57.805Z,388.12
2022-08-03T11:53:02.168Z,388.12
2022-08-03T11:54:06.538Z,382.50
2022-08-03T11:55:10.931Z,382.50
2022-08-03T11:56:15.296Z,376.88
2022-08-03T11:57:19.911Z,399.38
2022-08-03T11:59:00.986Z,405.00
2022-08-03T11:59:28.410Z,405.00
2022-08-03T12:00:32.801Z,405.00
2022-08-03T12:01:37.157Z,393.75
2022-08-03T12:02:41.530Z,388.12
2022-08-03T12:03:46.033Z,388.12
2022-08-03T12:04:50.276Z,354.38
2022-08-03T12:05:54.875Z,365.62
2022-08-03T12:06:59.037Z,382.50
2022-08-03T12:08:06.711Z,382.50
2022-08-03T12:09:07.788Z,388.12
2022-08-03T12:10:12.158Z,388.12
2022-08-03T12:11:16.559Z,405.00
2022-08-03T12:12:20.932Z,399.38
2022-08-03T12:14:10.661Z,354.38
2022-08-03T12:14:49.872Z,309.38
2022-08-03T12:15:34.068Z,410.62
2022-08-03T12:16:38.429Z,472.50
2022-08-03T12:17:42.797Z,489.38
2022-08-03T12:18:47.160Z,478.12
2022-08-03T12:19:51.531Z,483.75
2022-08-03T12:20:55.933Z,500.62
2022-08-03T12:22:00.304Z,506.25
2022-08-03T12:23:04.852Z,517.50
2022-08-03T12:24:09.077Z,517.50
2022-08-03T12:25:13.443Z,523.12
2022-08-03T12:26:17.834Z,528.75
2022-08-03T12:27:22.211Z,303.75
2022-08-03T12:28:28.273Z,551.25
2022-08-03T12:29:30.962Z,540.00
2022-08-03T12:30:35.343Z,551.25
2022-08-03T12:31:39.740Z,562.50
2022-08-03T12:32:44.107Z,579.38
2022-08-03T12:33:48.480Z,618.75
2022-08-03T12:34:52.859Z,635.62
2022-08-03T12:35:57.256Z,658.12
2022-08-03T12:37:01.622Z,686.25
2022-08-03T12:38:05.993Z,686.25
2022-08-03T12:39:10.363Z,680.62
2022-08-03T12:40:19.603Z,680.62
2022-08-03T12:41:19.125Z,675.00
2022-08-03T12:42:23.493Z,680.62
2022-08-03T12:43:27.868Z,680.62
2022-08-03T12:44:32.237Z,675.00
2022-08-03T12:45:36.603Z,675.00
2022-08-03T12:46:46.928Z,686.25
2022-08-03T12:47:45.366Z,680.62
2022-08-03T12:48:49.762Z,686.25
2022-08-03T12:49:54.125Z,697.50
2022-08-03T12:50:58.533Z,714.38
2022-08-03T12:52:07.402Z,742.50
2022-08-03T12:53:07.862Z,765.00
2022-08-03T12:54:11.634Z,781.88
2022-08-03T12:55:16.015Z,781.88
2022-08-03T12:56:20.376Z,748.12
2022-08-03T12:57:24.736Z,838.12
2022-08-03T12:58:29.170Z,843.75
2022-08-03T12:59:40.448Z,843.75
2022-08-03T13:00:37.815Z,866.25
2022-08-03T13:01:55.178Z,883.12
2022-08-03T13:02:46.621Z,871.88
2022-08-03T13:03:52.713Z,911.25
2022-08-03T13:04:55.243Z,939.38
2022-08-03T13:05:59.618Z,939.38
2022-08-03T13:07:03.957Z,978.75
2022-08-03T13:08:08.299Z,956.25
2022-08-03T13:09:12.648Z,945.00
2022-08-03T13:10:17.709Z,995.62
2022-08-03T13:11:21.347Z,1006.88
2022-08-03T13:12:25.688Z,405.00
2022-08-03T13:13:30.028Z,466.88
2022-08-03T13:14:34.390Z,1012.50
2022-08-03T13:15:48.089Z,1040.62
2022-08-03T13:16:43.098Z,1006.88
2022-08-03T13:17:47.429Z,1029.38
2022-08-03T13:18:51.770Z,1102.50
2022-08-03T13:19:56.110Z,1102.50
2022-08-03T13:21:00.450Z,376.88
2022-08-03T13:22:05.087Z,607.50
2022-08-03T13:23:12.988Z,939.38
2022-08-03T13:24:13.514Z,1080.00
2022-08-03T13:25:17.849Z,1119.38
2022-08-03T13:26:22.182Z,1198.12
2022-08-03T13:28:03.095Z,1153.12
2022-08-03T13:28:30.911Z,1068.75
2022-08-03T13:29:35.244Z,1181.25
2022-08-03T13:30:39.583Z,1265.62
2022-08-03T13:31:50.557Z,399.38
2022-08-03T13:32:48.279Z,900.00
2022-08-03T13:33:52.624Z,1282.50
2022-08-03T13:34:56.953Z,1164.38
2022-08-03T13:36:01.301Z,933.75
2022-08-03T13:37:09.805Z,393.75
2022-08-03T13:38:10.063Z,427.50
2022-08-03T13:39:14.344Z,455.62
2022-08-03T13:40:18.705Z,427.50
2022-08-03T13:41:31.079Z,1473.75
2022-08-03T13:42:27.425Z,1462.50
2022-08-03T13:43:31.765Z,1355.62
2022-08-03T13:44:36.116Z,1344.38
2022-08-03T13:45:40.464Z,1468.12
2022-08-03T13:46:44.814Z,1485.00
2022-08-03T13:47:49.191Z,1456.88
2022-08-03T13:48:53.533Z,1417.50
2022-08-03T13:50:01.151Z,1406.25
2022-08-03T13:51:11.513Z,1479.38
2022-08-03T13:52:06.607Z,1625.62
2022-08-03T13:53:10.954Z,1198.12